EPKKEPLL

Guest
Details From EPKK - BALICE
To EPLL - LODZ LUBLINEK
Flight Number -
Tags generated
Created
Modified
Stats Distance 100 nm / 185 km
Max Altitude 9,400 ft / 2,865 m
Waypoints 3
Social Downloads 0
Likes 0
Share VATSIM

Download

Looking for another format? Having issues loading an existing format? Contact us
Advertisement - Login to hide

Notes

Basic altitude profile: - Ascent Rate: 2500ft/min - Ascent Speed: 250kts - Cruise Altitude: 35000ft - Cruise Speed: 420kts - Descent Rate: 1500ft/min - Descent Speed: 250kts Options: - Use NATs: yes - Use PACOTS: yes - Use low airways: yes - Use high airways: yes

Route

EPKK BESAL EPLL

ID Type Via Altitude Latitude Longitude Leg Dist Tot Dist Heading (true) Name
O EPKK APT - 0 ft / 0 m 50.07782˚ 19.78550˚ - 0 nm - BALICE
BESAL FIX - 9,400 ft / 2,865 m 50.99333˚ 19.58528˚ 55 nm 55 nm 352° / 352° -
O EPLL APT - 0 ft / 0 m 51.72008˚ 19.39533˚ 44 nm 99 nm 351° / 351° LODZ LUBLINEK

Altitude Profile

Advertisement - Login to hide

EPKK

Details ICAO EPKK (KRK)
Name BALICE
Region Poland
Timezone Europe/Warsaw (UTC+1.0)
Stats Elevation 791 ft / 241 m (AMSL)
Location 50.077821° 19.785503°
Runways 1
Magnetic Variation 5.202° E

METAR

EPKK 161630Z 23005KT 6000 BKN036 01/M02 Q1008

Decode

TAF

TAF EPKK 161130Z 1612/1712 27010KT 7000 BKN030 TEMPO 1612/1712 4000 -SN BR BKN008 BKN020 BECMG 1619/1621 VRB02KT PROB40 1700/1708 1200 SN BR BKN004 BKN012

Decode

Departure Runways

ID Width Length Bearing (true) Bearing (mag) Surface Threshold Offset Overrun Length
07 197 ft / 60 m 8,343 ft / 2,543 m 77.75° 72.55° Concrete 0 ft / 0 m 0 ft / 0 m
25 197 ft / 60 m 8,343 ft / 2,543 m 257.77° 252.57° Concrete 784 ft / 239 m 0 ft / 0 m

EPLL

Details ICAO EPLL (LCJ)
Name LODZ LUBLINEK
Region Poland
Timezone Europe/Warsaw (UTC+1.0)
Stats Elevation 606 ft / 185 m (AMSL)
Location 51.720081° 19.395332°
Runways 2
Magnetic Variation 5.331° E

METAR

EPLL 161630Z 23008KT 5000 BR FEW015 SCT027 OVC031 00/M01 Q1007

Decode

TAF

TAF EPLL 161130Z 1612/1712 27008KT 7000 BKN012 PROB40 1612/1613 3000 BR BKN004 PROB40 TEMPO 1613/1620 SCT025 TEMPO 1621/1707 2000 -SN BR BKN004

Decode

Destination Runways

ID Width Length Bearing (true) Bearing (mag) Surface Threshold Offset Overrun Length
07L 148 ft / 45 m 8,184 ft / 2,495 m 70.76° 65.43° Concrete 0 ft / 0 m 0 ft / 0 m
07R 574 ft / 175 m 2,299 ft / 701 m 70.78° 65.45° Grass 0 ft / 0 m 0 ft / 0 m
25L 574 ft / 175 m 2,299 ft / 701 m 250.78° 245.45° Grass 0 ft / 0 m 0 ft / 0 m
25R 148 ft / 45 m 8,184 ft / 2,495 m 250.79° 245.46° Concrete 0 ft / 0 m 0 ft / 0 m

Approach Navaids

Runway Type Ident Frequency Range Bearing (true) Bearing (mag) Slope Elevation
25R Localiser ILOD 110.50 MHz 18 nm / 33 km 250.60° 245.27° - 604 ft / 184 m (AMSL)
25R Glidescope ILOD 110.50 MHz 10 nm / 19 km 250.60° 245.27° 3.00° 604 ft / 184 m (AMSL)

Popular Alternatives